sensor_id;sensor_type;location;lat;lon;timestamp;P1;durP1;ratioP1;P2;durP2;ratioP2
795;SDS011;381;48.770;9.188;2023-07-29T00:04:43;3.90;;;3.80;;
795;SDS011;381;48.770;9.188;2023-07-29T00:09:45;4.60;;;4.30;;
795;SDS011;381;48.770;9.188;2023-07-29T00:14:48;4.93;;;4.70;;
795;SDS011;381;48.770;9.188;2023-07-29T00:19:50;5.07;;;4.83;;
795;SDS011;381;48.770;9.188;2023-07-29T00:24:52;5.00;;;4.70;;
795;SDS011;381;48.770;9.188;2023-07-29T00:29:57;4.23;;;4.03;;
795;SDS011;381;48.770;9.188;2023-07-29T00:34:59;4.20;;;3.93;;
795;SDS011;381;48.770;9.188;2023-07-29T00:40:02;4.50;;;4.30;;
795;SDS011;381;48.770;9.188;2023-07-29T00:45:07;5.00;;;4.70;;
795;SDS011;381;48.770;9.188;2023-07-29T00:50:10;4.93;;;4.67;;
795;SDS011;381;48.770;9.188;2023-07-29T00:55:14;4.40;;;4.17;;
795;SDS011;381;48.770;9.188;2023-07-29T01:00:20;6.00;;;4.70;;
795;SDS011;381;48.770;9.188;2023-07-29T01:05:22;4.30;;;4.00;;
795;SDS011;381;48.770;9.188;2023-07-29T01:10:33;3.70;;;3.60;;
795;SDS011;381;48.770;9.188;2023-07-29T01:15:47;4.17;;;3.97;;
795;SDS011;381;48.770;9.188;2023-07-29T01:20:59;4.40;;;4.10;;
795;SDS011;381;48.770;9.188;2023-07-29T01:26:06;6.83;;;4.37;;
795;SDS011;381;48.770;9.188;2023-07-29T01:31:10;4.50;;;4.10;;
795;SDS011;381;48.770;9.188;2023-07-29T01:36:18;4.57;;;4.27;;
795;SDS011;381;48.770;9.188;2023-07-29T01:41:25;4.10;;;3.90;;
795;SDS011;381;48.770;9.188;2023-07-29T01:46:31;4.43;;;4.23;;
795;SDS011;381;48.770;9.188;2023-07-29T01:51:34;3.83;;;3.63;;
795;SDS011;381;48.770;9.188;2023-07-29T01:56:38;4.27;;;3.97;;
795;SDS011;381;48.770;9.188;2023-07-29T02:01:40;4.20;;;4.00;;
795;SDS011;381;48.770;9.188;2023-07-29T02:06:43;6.60;;;4.10;;
795;SDS011;381;48.770;9.188;2023-07-29T02:11:46;4.90;;;4.23;;
795;SDS011;381;48.770;9.188;2023-07-29T02:16:48;4.10;;;3.83;;
795;SDS011;381;48.770;9.188;2023-07-29T02:21:51;4.00;;;3.80;;
795;SDS011;381;48.770;9.188;2023-07-29T02:26:54;4.53;;;4.30;;
795;SDS011;381;48.770;9.188;2023-07-29T02:31:56;4.30;;;4.00;;
795;SDS011;381;48.770;9.188;2023-07-29T02:36:58;4.27;;;4.07;;
795;SDS011;381;48.770;9.188;2023-07-29T02:42:02;4.00;;;3.80;;
795;SDS011;381;48.770;9.188;2023-07-29T02:47:05;4.30;;;4.10;;
795;SDS011;381;48.770;9.188;2023-07-29T02:52:07;4.30;;;4.00;;
795;SDS011;381;48.770;9.188;2023-07-29T02:57:10;4.30;;;4.10;;
795;SDS011;381;48.770;9.188;2023-07-29T03:02:14;3.93;;;3.73;;
795;SDS011;381;48.770;9.188;2023-07-29T03:07:17;4.33;;;4.13;;
795;SDS011;381;48.770;9.188;2023-07-29T03:12:22;4.47;;;4.27;;
795;SDS011;381;48.770;9.188;2023-07-29T03:17:24;4.33;;;4.10;;
795;SDS011;381;48.770;9.188;2023-07-29T03:22:26;4.13;;;3.93;;
795;SDS011;381;48.770;9.188;2023-07-29T03:27:30;3.90;;;3.70;;
795;SDS011;381;48.770;9.188;2023-07-29T03:32:33;4.17;;;3.90;;
795;SDS011;381;48.770;9.188;2023-07-29T03:37:36;4.13;;;3.93;;
795;SDS011;381;48.770;9.188;2023-07-29T03:42:39;4.00;;;3.80;;
795;SDS011;381;48.770;9.188;2023-07-29T03:47:41;4.10;;;3.90;;
795;SDS011;381;48.770;9.188;2023-07-29T03:52:44;4.37;;;4.07;;
795;SDS011;381;48.770;9.188;2023-07-29T03:57:47;4.50;;;4.20;;
795;SDS011;381;48.770;9.188;2023-07-29T04:02:49;4.23;;;3.93;;
795;SDS011;381;48.770;9.188;2023-07-29T04:07:52;5.10;;;4.60;;
795;SDS011;381;48.770;9.188;2023-07-29T04:12:57;6.23;;;3.90;;
795;SDS011;381;48.770;9.188;2023-07-29T04:17:59;4.50;;;4.30;;
795;SDS011;381;48.770;9.188;2023-07-29T04:23:01;3.83;;;3.63;;
795;SDS011;381;48.770;9.188;2023-07-29T04:28:05;4.63;;;4.33;;
795;SDS011;381;48.770;9.188;2023-07-29T04:33:07;4.50;;;4.20;;
795;SDS011;381;48.770;9.188;2023-07-29T04:38:11;5.47;;;4.10;;
795;SDS011;381;48.770;9.188;2023-07-29T04:43:15;5.70;;;5.40;;
795;SDS011;381;48.770;9.188;2023-07-29T04:48:18;6.70;;;6.30;;
795;SDS011;381;48.770;9.188;2023-07-29T04:53:20;9.27;;;8.57;;
795;SDS011;381;48.770;9.188;2023-07-29T04:58:23;9.10;;;8.60;;
795;SDS011;381;48.770;9.188;2023-07-29T05:03:25;11.97;;;9.33;;
795;SDS011;381;48.770;9.188;2023-07-29T05:08:28;8.73;;;8.33;;
795;SDS011;381;48.770;9.188;2023-07-29T05:13:31;9.07;;;8.63;;
795;SDS011;381;48.770;9.188;2023-07-29T05:18:34;9.80;;;9.30;;
795;SDS011;381;48.770;9.188;2023-07-29T05:23:36;7.00;;;6.57;;
795;SDS011;381;48.770;9.188;2023-07-29T05:28:40;8.13;;;7.63;;
795;SDS011;381;48.770;9.188;2023-07-29T05:33:42;8.80;;;8.27;;
795;SDS011;381;48.770;9.188;2023-07-29T05:38:44;6.53;;;6.23;;
795;SDS011;381;48.770;9.188;2023-07-29T05:43:48;9.17;;;8.63;;
795;SDS011;381;48.770;9.188;2023-07-29T05:48:50;8.30;;;7.80;;
795;SDS011;381;48.770;9.188;2023-07-29T05:53:53;8.80;;;8.30;;
795;SDS011;381;48.770;9.188;2023-07-29T05:58:57;8.80;;;8.30;;
795;SDS011;381;48.770;9.188;2023-07-29T06:03:59;8.83;;;8.33;;
795;SDS011;381;48.770;9.188;2023-07-29T06:09:02;8.27;;;7.60;;
795;SDS011;381;48.770;9.188;2023-07-29T06:14:06;8.37;;;7.87;;
795;SDS011;381;48.770;9.188;2023-07-29T06:19:08;9.80;;;9.20;;
795;SDS011;381;48.770;9.188;2023-07-29T06:24:10;8.87;;;8.03;;
795;SDS011;381;48.770;9.188;2023-07-29T06:29:14;8.53;;;7.93;;
795;SDS011;381;48.770;9.188;2023-07-29T06:34:16;7.80;;;7.40;;
795;SDS011;381;48.770;9.188;2023-07-29T06:39:19;7.10;;;6.50;;
795;SDS011;381;48.770;9.188;2023-07-29T06:44:22;8.37;;;7.97;;
795;SDS011;381;48.770;9.188;2023-07-29T06:49:24;7.47;;;7.17;;
795;SDS011;381;48.770;9.188;2023-07-29T06:54:31;7.83;;;7.53;;
795;SDS011;381;48.770;9.188;2023-07-29T06:59:35;6.70;;;6.30;;
795;SDS011;381;48.770;9.188;2023-07-29T07:04:37;6.57;;;6.10;;
795;SDS011;381;48.770;9.188;2023-07-29T07:15:07;7.13;;;6.73;;
795;SDS011;381;48.770;9.188;2023-07-29T07:20:10;5.87;;;5.67;;
795;SDS011;381;48.770;9.188;2023-07-29T07:25:13;6.73;;;6.30;;
795;SDS011;381;48.770;9.188;2023-07-29T07:30:17;5.53;;;5.33;;
795;SDS011;381;48.770;9.188;2023-07-29T07:35:19;6.20;;;5.90;;
795;SDS011;381;48.770;9.188;2023-07-29T07:40:24;10.70;;;6.37;;
795;SDS011;381;48.770;9.188;2023-07-29T07:45:28;7.47;;;6.77;;
795;SDS011;381;48.770;9.188;2023-07-29T07:50:32;7.40;;;7.10;;
795;SDS011;381;48.770;9.188;2023-07-29T07:55:44;7.20;;;6.80;;
795;SDS011;381;48.770;9.188;2023-07-29T08:00:53;6.60;;;6.30;;
795;SDS011;381;48.770;9.188;2023-07-29T08:06:09;7.00;;;6.70;;
795;SDS011;381;48.770;9.188;2023-07-29T08:11:20;5.73;;;5.50;;
795;SDS011;381;48.770;9.188;2023-07-29T08:16:37;5.17;;;4.97;;
795;SDS011;381;48.770;9.188;2023-07-29T08:21:42;5.70;;;5.20;;
795;SDS011;381;48.770;9.188;2023-07-29T08:26:44;6.23;;;4.90;;
795;SDS011;381;48.770;9.188;2023-07-29T08:31:47;4.53;;;4.33;;
795;SDS011;381;48.770;9.188;2023-07-29T08:36:52;4.77;;;4.57;;
795;SDS011;381;48.770;9.188;2023-07-29T08:41:56;5.20;;;5.00;;
795;SDS011;381;48.770;9.188;2023-07-29T08:47:04;4.73;;;4.43;;
795;SDS011;381;48.770;9.188;2023-07-29T08:52:07;4.70;;;4.50;;
795;SDS011;381;48.770;9.188;2023-07-29T08:57:10;4.70;;;4.50;;
795;SDS011;381;48.770;9.188;2023-07-29T09:02:14;4.20;;;3.90;;
795;SDS011;381;48.770;9.188;2023-07-29T09:07:16;4.00;;;3.80;;
795;SDS011;381;48.770;9.188;2023-07-29T09:12:19;3.83;;;3.50;;
795;SDS011;381;48.770;9.188;2023-07-29T09:17:24;4.83;;;3.03;;
795;SDS011;381;48.770;9.188;2023-07-29T09:22:27;2.50;;;2.40;;
795;SDS011;381;48.770;9.188;2023-07-29T09:27:29;3.20;;;3.10;;
795;SDS011;381;48.770;9.188;2023-07-29T09:32:34;2.80;;;2.60;;
795;SDS011;381;48.770;9.188;2023-07-29T09:37:40;3.73;;;3.53;;
795;SDS011;381;48.770;9.188;2023-07-29T09:42:47;3.47;;;3.10;;
795;SDS011;381;48.770;9.188;2023-07-29T09:47:52;3.70;;;3.50;;
795;SDS011;381;48.770;9.188;2023-07-29T09:52:55;6.90;;;4.43;;
795;SDS011;381;48.770;9.188;2023-07-29T09:57:59;3.17;;;3.07;;
795;SDS011;381;48.770;9.188;2023-07-29T10:03:05;2.07;;;1.97;;
795;SDS011;381;48.770;9.188;2023-07-29T10:08:08;3.63;;;2.00;;
795;SDS011;381;48.770;9.188;2023-07-29T10:13:12;3.00;;;2.80;;
795;SDS011;381;48.770;9.188;2023-07-29T10:18:15;3.10;;;2.70;;
795;SDS011;381;48.770;9.188;2023-07-29T10:23:18;2.07;;;1.97;;
795;SDS011;381;48.770;9.188;2023-07-29T10:28:23;1.80;;;1.70;;
795;SDS011;381;48.770;9.188;2023-07-29T10:33:29;2.10;;;2.00;;
795;SDS011;381;48.770;9.188;2023-07-29T10:38:33;2.27;;;2.17;;
795;SDS011;381;48.770;9.188;2023-07-29T10:43:35;2.17;;;1.97;;
795;SDS011;381;48.770;9.188;2023-07-29T10:48:40;2.10;;;1.83;;
795;SDS011;381;48.770;9.188;2023-07-29T10:53:43;2.27;;;1.90;;
795;SDS011;381;48.770;9.188;2023-07-29T10:58:46;2.37;;;2.27;;
795;SDS011;381;48.770;9.188;2023-07-29T11:04:01;1.97;;;1.87;;
795;SDS011;381;48.770;9.188;2023-07-29T11:09:38;2.37;;;2.27;;
795;SDS011;381;48.770;9.188;2023-07-29T11:14:41;2.43;;;2.33;;
795;SDS011;381;48.770;9.188;2023-07-29T11:19:44;1.97;;;1.77;;
795;SDS011;381;48.770;9.188;2023-07-29T11:24:49;2.63;;;2.43;;
795;SDS011;381;48.770;9.188;2023-07-29T11:29:55;2.23;;;2.13;;
795;SDS011;381;48.770;9.188;2023-07-29T11:35:02;1.97;;;1.87;;
795;SDS011;381;48.770;9.188;2023-07-29T11:40:05;2.50;;;2.30;;
795;SDS011;381;48.770;9.188;2023-07-29T11:45:09;2.97;;;2.30;;
795;SDS011;381;48.770;9.188;2023-07-29T11:50:14;2.60;;;2.40;;
795;SDS011;381;48.770;9.188;2023-07-29T11:55:16;3.33;;;2.50;;
795;SDS011;381;48.770;9.188;2023-07-29T12:00:20;2.40;;;2.20;;
795;SDS011;381;48.770;9.188;2023-07-29T12:05:24;2.90;;;2.60;;
795;SDS011;381;48.770;9.188;2023-07-29T12:10:26;2.70;;;1.90;;
795;SDS011;381;48.770;9.188;2023-07-29T12:15:29;2.93;;;2.73;;
795;SDS011;381;48.770;9.188;2023-07-29T12:20:32;2.20;;;2.10;;
795;SDS011;381;48.770;9.188;2023-07-29T12:25:35;2.40;;;2.30;;
795;SDS011;381;48.770;9.188;2023-07-29T12:30:41;3.00;;;2.80;;
795;SDS011;381;48.770;9.188;2023-07-29T12:35:45;2.93;;;2.33;;
795;SDS011;381;48.770;9.188;2023-07-29T12:40:47;3.23;;;2.97;;
795;SDS011;381;48.770;9.188;2023-07-29T12:45:49;3.13;;;2.93;;
795;SDS011;381;48.770;9.188;2023-07-29T12:50:52;2.93;;;2.83;;
795;SDS011;381;48.770;9.188;2023-07-29T12:55:54;3.03;;;2.83;;
795;SDS011;381;48.770;9.188;2023-07-29T13:00:56;4.27;;;2.80;;
795;SDS011;381;48.770;9.188;2023-07-29T13:06:00;2.90;;;2.37;;
795;SDS011;381;48.770;9.188;2023-07-29T13:11:02;2.50;;;2.40;;
795;SDS011;381;48.770;9.188;2023-07-29T13:16:04;2.60;;;2.40;;
795;SDS011;381;48.770;9.188;2023-07-29T13:21:08;3.00;;;2.80;;
795;SDS011;381;48.770;9.188;2023-07-29T13:26:10;2.50;;;2.40;;
795;SDS011;381;48.770;9.188;2023-07-29T13:31:12;2.30;;;2.10;;
795;SDS011;381;48.770;9.188;2023-07-29T13:36:16;2.40;;;2.30;;
795;SDS011;381;48.770;9.188;2023-07-29T13:41:18;4.60;;;2.47;;
795;SDS011;381;48.770;9.188;2023-07-29T13:46:20;3.00;;;2.80;;
795;SDS011;381;48.770;9.188;2023-07-29T13:51:23;2.57;;;2.43;;
795;SDS011;381;48.770;9.188;2023-07-29T13:56:26;2.23;;;2.13;;
795;SDS011;381;48.770;9.188;2023-07-29T14:01:28;2.60;;;2.40;;
795;SDS011;381;48.770;9.188;2023-07-29T14:06:32;2.40;;;2.30;;
795;SDS011;381;48.770;9.188;2023-07-29T14:11:34;2.60;;;2.10;;
795;SDS011;381;48.770;9.188;2023-07-29T14:16:36;2.50;;;2.40;;
795;SDS011;381;48.770;9.188;2023-07-29T14:21:40;2.57;;;2.37;;
795;SDS011;381;48.770;9.188;2023-07-29T14:26:42;2.47;;;2.37;;
795;SDS011;381;48.770;9.188;2023-07-29T14:31:44;3.10;;;2.90;;
795;SDS011;381;48.770;9.188;2023-07-29T14:36:48;3.10;;;2.90;;
795;SDS011;381;48.770;9.188;2023-07-29T14:41:50;2.87;;;2.67;;
795;SDS011;381;48.770;9.188;2023-07-29T14:46:52;5.93;;;2.60;;
795;SDS011;381;48.770;9.188;2023-07-29T14:51:56;2.87;;;2.67;;
795;SDS011;381;48.770;9.188;2023-07-29T14:56:58;2.60;;;2.40;;
795;SDS011;381;48.770;9.188;2023-07-29T15:02:00;2.40;;;2.30;;
795;SDS011;381;48.770;9.188;2023-07-29T15:07:04;2.57;;;2.47;;
795;SDS011;381;48.770;9.188;2023-07-29T15:12:07;2.50;;;2.37;;
795;SDS011;381;48.770;9.188;2023-07-29T15:17:10;3.00;;;2.80;;
795;SDS011;381;48.770;9.188;2023-07-29T15:22:13;2.90;;;2.70;;
795;SDS011;381;48.770;9.188;2023-07-29T15:27:15;2.70;;;2.50;;
795;SDS011;381;48.770;9.188;2023-07-29T15:32:18;2.70;;;2.50;;
795;SDS011;381;48.770;9.188;2023-07-29T15:37:22;3.27;;;3.00;;
795;SDS011;381;48.770;9.188;2023-07-29T15:42:27;2.40;;;2.20;;
795;SDS011;381;48.770;9.188;2023-07-29T15:47:29;2.37;;;2.27;;
795;SDS011;381;48.770;9.188;2023-07-29T15:52:32;3.30;;;3.10;;
795;SDS011;381;48.770;9.188;2023-07-29T15:57:34;2.70;;;2.50;;
795;SDS011;381;48.770;9.188;2023-07-29T16:02:36;3.00;;;2.80;;
795;SDS011;381;48.770;9.188;2023-07-29T16:07:40;2.80;;;2.70;;
795;SDS011;381;48.770;9.188;2023-07-29T16:12:42;2.90;;;2.70;;
795;SDS011;381;48.770;9.188;2023-07-29T16:17:44;2.60;;;2.40;;
795;SDS011;381;48.770;9.188;2023-07-29T16:22:51;2.40;;;2.20;;
795;SDS011;381;48.770;9.188;2023-07-29T16:27:54;3.17;;;2.97;;
795;SDS011;381;48.770;9.188;2023-07-29T16:32:57;2.33;;;2.23;;
795;SDS011;381;48.770;9.188;2023-07-29T16:38:00;2.90;;;2.70;;
795;SDS011;381;48.770;9.188;2023-07-29T16:43:03;2.90;;;2.70;;
795;SDS011;381;48.770;9.188;2023-07-29T16:48:05;2.73;;;2.53;;
795;SDS011;381;48.770;9.188;2023-07-29T16:53:08;2.20;;;2.07;;
795;SDS011;381;48.770;9.188;2023-07-29T16:58:10;2.30;;;2.10;;
795;SDS011;381;48.770;9.188;2023-07-29T17:03:12;2.53;;;2.33;;
795;SDS011;381;48.770;9.188;2023-07-29T17:08:16;2.23;;;2.13;;
795;SDS011;381;48.770;9.188;2023-07-29T17:13:18;2.43;;;2.33;;
795;SDS011;381;48.770;9.188;2023-07-29T17:18:20;3.97;;;3.67;;
795;SDS011;381;48.770;9.188;2023-07-29T17:23:23;3.23;;;2.70;;
795;SDS011;381;48.770;9.188;2023-07-29T17:28:26;3.13;;;2.93;;
795;SDS011;381;48.770;9.188;2023-07-29T17:33:30;2.70;;;2.33;;
795;SDS011;381;48.770;9.188;2023-07-29T17:38:33;2.27;;;2.17;;
795;SDS011;381;48.770;9.188;2023-07-29T17:43:35;2.10;;;1.90;;
795;SDS011;381;48.770;9.188;2023-07-29T17:48:44;2.40;;;2.30;;
795;SDS011;381;48.770;9.188;2023-07-29T17:53:47;2.60;;;2.40;;
795;SDS011;381;48.770;9.188;2023-07-29T17:58:50;3.80;;;3.00;;
795;SDS011;381;48.770;9.188;2023-07-29T18:03:52;3.00;;;2.80;;
795;SDS011;381;48.770;9.188;2023-07-29T18:08:55;2.93;;;2.73;;
795;SDS011;381;48.770;9.188;2023-07-29T18:13:57;3.20;;;3.00;;
795;SDS011;381;48.770;9.188;2023-07-29T18:19:00;3.33;;;3.03;;
795;SDS011;381;48.770;9.188;2023-07-29T18:24:03;7.40;;;4.40;;
795;SDS011;381;48.770;9.188;2023-07-29T18:29:06;2.53;;;2.43;;
795;SDS011;381;48.770;9.188;2023-07-29T18:34:08;4.10;;;3.40;;
795;SDS011;381;48.770;9.188;2023-07-29T18:39:11;6.20;;;4.60;;
795;SDS011;381;48.770;9.188;2023-07-29T18:44:14;6.93;;;5.70;;
795;SDS011;381;48.770;9.188;2023-07-29T18:49:16;7.43;;;6.60;;
795;SDS011;381;48.770;9.188;2023-07-29T18:54:19;5.67;;;5.07;;
795;SDS011;381;48.770;9.188;2023-07-29T18:59:21;4.40;;;4.10;;
795;SDS011;381;48.770;9.188;2023-07-29T19:04:24;6.73;;;5.93;;
795;SDS011;381;48.770;9.188;2023-07-29T19:09:27;5.00;;;4.60;;
795;SDS011;381;48.770;9.188;2023-07-29T19:14:29;3.27;;;3.07;;
795;SDS011;381;48.770;9.188;2023-07-29T19:19:31;7.10;;;4.30;;
795;SDS011;381;48.770;9.188;2023-07-29T19:24:35;4.70;;;4.30;;
795;SDS011;381;48.770;9.188;2023-07-29T19:29:37;4.80;;;4.40;;
795;SDS011;381;48.770;9.188;2023-07-29T19:34:39;4.27;;;3.83;;
795;SDS011;381;48.770;9.188;2023-07-29T19:39:43;3.80;;;3.50;;
795;SDS011;381;48.770;9.188;2023-07-29T19:44:45;4.30;;;4.03;;
795;SDS011;381;48.770;9.188;2023-07-29T19:49:47;3.80;;;3.47;;
795;SDS011;381;48.770;9.188;2023-07-29T19:54:51;4.43;;;4.13;;
795;SDS011;381;48.770;9.188;2023-07-29T19:59:53;3.80;;;3.60;;
795;SDS011;381;48.770;9.188;2023-07-29T20:04:55;3.43;;;3.23;;
795;SDS011;381;48.770;9.188;2023-07-29T20:09:58;3.80;;;3.60;;
795;SDS011;381;48.770;9.188;2023-07-29T20:15:01;4.30;;;3.90;;
795;SDS011;381;48.770;9.188;2023-07-29T20:20:03;4.10;;;3.80;;
795;SDS011;381;48.770;9.188;2023-07-29T20:25:08;4.07;;;3.80;;
795;SDS011;381;48.770;9.188;2023-07-29T20:30:10;4.00;;;3.77;;
795;SDS011;381;48.770;9.188;2023-07-29T20:35:12;5.10;;;4.70;;
795;SDS011;381;48.770;9.188;2023-07-29T20:40:16;5.30;;;4.90;;
795;SDS011;381;48.770;9.188;2023-07-29T20:45:18;4.10;;;3.70;;
795;SDS011;381;48.770;9.188;2023-07-29T20:50:20;4.40;;;4.00;;
795;SDS011;381;48.770;9.188;2023-07-29T20:55:25;4.23;;;3.93;;
795;SDS011;381;48.770;9.188;2023-07-29T21:00:27;7.30;;;3.80;;
795;SDS011;381;48.770;9.188;2023-07-29T21:05:32;4.60;;;4.30;;
795;SDS011;381;48.770;9.188;2023-07-29T21:10:36;4.40;;;4.10;;
795;SDS011;381;48.770;9.188;2023-07-29T21:15:38;4.43;;;4.13;;
795;SDS011;381;48.770;9.188;2023-07-29T21:20:40;4.60;;;4.20;;
795;SDS011;381;48.770;9.188;2023-07-29T21:25:45;3.87;;;3.67;;
795;SDS011;381;48.770;9.188;2023-07-29T21:30:48;4.57;;;4.27;;
795;SDS011;381;48.770;9.188;2023-07-29T21:35:51;4.87;;;4.43;;
795;SDS011;381;48.770;9.188;2023-07-29T21:40:54;4.33;;;4.07;;
795;SDS011;381;48.770;9.188;2023-07-29T21:45:56;6.70;;;3.97;;
795;SDS011;381;48.770;9.188;2023-07-29T21:51:01;3.93;;;3.63;;
795;SDS011;381;48.770;9.188;2023-07-29T21:56:05;4.40;;;4.10;;
795;SDS011;381;48.770;9.188;2023-07-29T22:01:07;4.20;;;3.90;;
795;SDS011;381;48.770;9.188;2023-07-29T22:06:09;4.60;;;3.60;;
795;SDS011;381;48.770;9.188;2023-07-29T22:11:13;4.40;;;4.00;;
795;SDS011;381;48.770;9.188;2023-07-29T22:16:15;4.23;;;3.93;;
795;SDS011;381;48.770;9.188;2023-07-29T22:21:18;4.50;;;4.10;;
795;SDS011;381;48.770;9.188;2023-07-29T22:26:21;6.00;;;4.87;;
795;SDS011;381;48.770;9.188;2023-07-29T22:31:24;4.00;;;3.80;;
795;SDS011;381;48.770;9.188;2023-07-29T22:36:26;7.20;;;6.50;;
795;SDS011;381;48.770;9.188;2023-07-29T22:41:29;8.70;;;7.90;;
795;SDS011;381;48.770;9.188;2023-07-29T22:46:32;12.77;;;11.83;;
795;SDS011;381;48.770;9.188;2023-07-29T22:51:34;12.57;;;11.60;;
795;SDS011;381;48.770;9.188;2023-07-29T22:56:37;12.77;;;12.00;;
795;SDS011;381;48.770;9.188;2023-07-29T23:01:39;12.73;;;12.00;;
795;SDS011;381;48.770;9.188;2023-07-29T23:06:41;14.87;;;13.70;;
795;SDS011;381;48.770;9.188;2023-07-29T23:11:45;13.27;;;12.07;;
795;SDS011;381;48.770;9.188;2023-07-29T23:16:47;11.70;;;10.80;;
795;SDS011;381;48.770;9.188;2023-07-29T23:21:49;11.00;;;10.30;;
795;SDS011;381;48.770;9.188;2023-07-29T23:26:53;14.30;;;12.17;;
795;SDS011;381;48.770;9.188;2023-07-29T23:31:55;13.30;;;12.10;;
795;SDS011;381;48.770;9.188;2023-07-29T23:36:57;16.33;;;14.57;;
795;SDS011;381;48.770;9.188;2023-07-29T23:42:00;14.17;;;13.27;;
795;SDS011;381;48.770;9.188;2023-07-29T23:47:02;12.00;;;11.30;;
795;SDS011;381;48.770;9.188;2023-07-29T23:52:05;11.30;;;10.70;;
795;SDS011;381;48.770;9.188;2023-07-29T23:57:09;12.47;;;11.67;;
